Terminal Aerodrome Forecast
Issued by NWS

Home | Current Version | Previous Version | Text Only | Print | Product List | Glossary On
Versions: 1 2 3 4 5 6 7 8 9 10 11 12 13 14 15
000
FTUS45 KVEF 230540
TAFEED
TAF
KEED 230540Z 2306/2406 17010KT P6SM SCT040 OVC060
     FM231200 26014KT P6SM VCSH SCT040 BKN060
     FM231500 26015G25KT P6SM SCT050 BKN080=

USA.gov is the U.S. government's official web portal to all federal, state and local government web resources and services.